Aviation Digital Data Service (ADDS)

Output produced by METARs form (0720 UTC 24 March 2019)
found at http://www.aviationweather.gov/metar/data/
 
VDSR 240700Z 07009KT 9999 SCT015 SCT040 30/25 Q1007
TAF VDSR 240500Z 2406/2424 18007KT 9999 SCT017 
     TEMPO 2406/2411 5000 TSRA SCT015 FEW017CB
       
VDSV 240700Z 17008KT 120V240 9999 SCT015 FEW017CB SCT040 34/25 Q1008 CB:S
TAF VDSV 240500Z 2406/2424 16010KT 9999 SCT017 
     TEMPO 2407/2412 5000 TSRA SCT015 FEW017CB